sensor_id;sensor_type;location;lat;lon;timestamp;temperature;humidity
34768;DHT22;21755;43.608;1.236;2022-09-24T00:01:19;16.50;99.90
34768;DHT22;21755;43.608;1.236;2022-09-24T00:03:50;16.50;99.90
34768;DHT22;21755;43.608;1.236;2022-09-24T00:06:17;16.50;99.90
34768;DHT22;21755;43.608;1.236;2022-09-24T00:08:45;16.50;99.90
34768;DHT22;21755;43.608;1.236;2022-09-24T00:11:12;16.50;99.90
34768;DHT22;21755;43.608;1.236;2022-09-24T00:13:39;16.50;99.90
34768;DHT22;21755;43.608;1.236;2022-09-24T00:16:08;16.50;99.90
34768;DHT22;21755;43.608;1.236;2022-09-24T00:18:34;16.50;99.90
34768;DHT22;21755;43.608;1.236;2022-09-24T00:21:09;16.50;99.90
34768;DHT22;21755;43.608;1.236;2022-09-24T00:23:35;16.50;99.90
34768;DHT22;21755;43.608;1.236;2022-09-24T00:26:01;16.50;99.90
34768;DHT22;21755;43.608;1.236;2022-09-24T00:28:49;16.50;99.90
34768;DHT22;21755;43.608;1.236;2022-09-24T00:31:15;16.50;99.90
34768;DHT22;21755;43.608;1.236;2022-09-24T00:33:40;16.50;99.90
34768;DHT22;21755;43.608;1.236;2022-09-24T00:36:08;16.50;99.90
34768;DHT22;21755;43.608;1.236;2022-09-24T00:38:34;16.40;99.90
34768;DHT22;21755;43.608;1.236;2022-09-24T00:41:01;16.40;99.90
34768;DHT22;21755;43.608;1.236;2022-09-24T00:43:34;16.40;99.90
34768;DHT22;21755;43.608;1.236;2022-09-24T00:46:20;16.40;99.90
34768;DHT22;21755;43.608;1.236;2022-09-24T00:48:49;16.40;99.90
34768;DHT22;21755;43.608;1.236;2022-09-24T00:51:19;16.40;99.90
34768;DHT22;21755;43.608;1.236;2022-09-24T00:53:49;16.40;99.90
34768;DHT22;21755;43.608;1.236;2022-09-24T00:56:18;16.40;99.90
34768;DHT22;21755;43.608;1.236;2022-09-24T00:58:48;16.40;99.90
34768;DHT22;21755;43.608;1.236;2022-09-24T01:01:18;16.40;99.90
34768;DHT22;21755;43.608;1.236;2022-09-24T01:03:46;16.40;99.90
34768;DHT22;21755;43.608;1.236;2022-09-24T01:06:13;16.40;99.90
34768;DHT22;21755;43.608;1.236;2022-09-24T01:08:40;16.40;99.90
34768;DHT22;21755;43.608;1.236;2022-09-24T01:16:57;16.30;99.90
34768;DHT22;21755;43.608;1.236;2022-09-24T01:31:07;16.20;99.90
34768;DHT22;21755;43.608;1.236;2022-09-24T01:33:35;16.20;99.90
34768;DHT22;21755;43.608;1.236;2022-09-24T01:36:03;16.20;99.90
34768;DHT22;21755;43.608;1.236;2022-09-24T01:38:40;16.20;99.90
34768;DHT22;21755;43.608;1.236;2022-09-24T01:41:09;16.20;99.90
34768;DHT22;21755;43.608;1.236;2022-09-24T01:43:36;16.20;99.90
34768;DHT22;21755;43.608;1.236;2022-09-24T01:46:04;16.20;99.90
34768;DHT22;21755;43.608;1.236;2022-09-24T01:48:34;16.10;99.90
34768;DHT22;21755;43.608;1.236;2022-09-24T01:54:33;16.20;99.90
34768;DHT22;21755;43.608;1.236;2022-09-24T01:59:21;16.20;99.90
34768;DHT22;21755;43.608;1.236;2022-09-24T02:04:27;16.20;99.90
34768;DHT22;21755;43.608;1.236;2022-09-24T02:07:00;16.20;99.90
34768;DHT22;21755;43.608;1.236;2022-09-24T02:09:33;16.20;99.90
34768;DHT22;21755;43.608;1.236;2022-09-24T02:12:06;16.20;99.90
34768;DHT22;21755;43.608;1.236;2022-09-24T02:14:39;16.20;99.90
34768;DHT22;21755;43.608;1.236;2022-09-24T02:17:08;16.20;99.90
34768;DHT22;21755;43.608;1.236;2022-09-24T02:19:37;16.20;99.90
34768;DHT22;21755;43.608;1.236;2022-09-24T02:22:06;16.20;99.90
34768;DHT22;21755;43.608;1.236;2022-09-24T02:24:48;16.20;99.90
34768;DHT22;21755;43.608;1.236;2022-09-24T02:27:16;16.10;99.90
34768;DHT22;21755;43.608;1.236;2022-09-24T02:29:43;16.00;99.90
34768;DHT22;21755;43.608;1.236;2022-09-24T02:32:12;16.10;99.90
34768;DHT22;21755;43.608;1.236;2022-09-24T02:34:45;16.10;99.90
34768;DHT22;21755;43.608;1.236;2022-09-24T02:37:14;16.10;99.90
34768;DHT22;21755;43.608;1.236;2022-09-24T02:39:41;16.10;99.90
34768;DHT22;21755;43.608;1.236;2022-09-24T02:42:09;16.10;99.90
34768;DHT22;21755;43.608;1.236;2022-09-24T02:44:36;16.10;99.90
34768;DHT22;21755;43.608;1.236;2022-09-24T02:47:02;16.00;99.90
34768;DHT22;21755;43.608;1.236;2022-09-24T02:49:28;16.10;99.90
34768;DHT22;21755;43.608;1.236;2022-09-24T02:51:54;16.10;99.90
34768;DHT22;21755;43.608;1.236;2022-09-24T02:54:21;16.10;99.90
34768;DHT22;21755;43.608;1.236;2022-09-24T02:56:48;16.10;99.90
34768;DHT22;21755;43.608;1.236;2022-09-24T02:59:14;16.10;99.90
34768;DHT22;21755;43.608;1.236;2022-09-24T03:01:40;16.10;99.90
34768;DHT22;21755;43.608;1.236;2022-09-24T03:04:06;16.10;99.90
34768;DHT22;21755;43.608;1.236;2022-09-24T03:06:32;16.10;99.90
34768;DHT22;21755;43.608;1.236;2022-09-24T03:08:58;16.10;99.90
34768;DHT22;21755;43.608;1.236;2022-09-24T03:11:26;16.00;99.90
34768;DHT22;21755;43.608;1.236;2022-09-24T03:13:53;16.00;99.90
34768;DHT22;21755;43.608;1.236;2022-09-24T03:16:19;16.00;99.90
34768;DHT22;21755;43.608;1.236;2022-09-24T03:18:46;16.00;99.90
34768;DHT22;21755;43.608;1.236;2022-09-24T03:21:14;16.00;99.90
34768;DHT22;21755;43.608;1.236;2022-09-24T03:23:40;16.00;99.90
34768;DHT22;21755;43.608;1.236;2022-09-24T03:26:07;16.00;99.90
34768;DHT22;21755;43.608;1.236;2022-09-24T03:28:33;16.00;99.90
34768;DHT22;21755;43.608;1.236;2022-09-24T03:30:59;16.00;99.90
34768;DHT22;21755;43.608;1.236;2022-09-24T03:36:10;16.00;99.90
34768;DHT22;21755;43.608;1.236;2022-09-24T03:38:37;16.00;99.90
34768;DHT22;21755;43.608;1.236;2022-09-24T03:41:05;16.00;99.90
34768;DHT22;21755;43.608;1.236;2022-09-24T03:43:31;16.00;99.90
34768;DHT22;21755;43.608;1.236;2022-09-24T03:45:58;16.00;99.90
34768;DHT22;21755;43.608;1.236;2022-09-24T03:48:25;16.00;99.90
34768;DHT22;21755;43.608;1.236;2022-09-24T03:50:52;16.00;99.90
34768;DHT22;21755;43.608;1.236;2022-09-24T03:53:19;16.00;99.90
34768;DHT22;21755;43.608;1.236;2022-09-24T03:55:53;16.10;99.90
34768;DHT22;21755;43.608;1.236;2022-09-24T03:58:20;16.10;99.90
34768;DHT22;21755;43.608;1.236;2022-09-24T04:00:46;16.10;99.90
34768;DHT22;21755;43.608;1.236;2022-09-24T04:03:12;16.00;99.90
34768;DHT22;21755;43.608;1.236;2022-09-24T04:05:38;16.00;99.90
34768;DHT22;21755;43.608;1.236;2022-09-24T04:08:04;16.10;99.90
34768;DHT22;21755;43.608;1.236;2022-09-24T04:10:31;16.10;99.90
34768;DHT22;21755;43.608;1.236;2022-09-24T04:12:57;16.00;99.90
34768;DHT22;21755;43.608;1.236;2022-09-24T04:15:23;16.00;99.90
34768;DHT22;21755;43.608;1.236;2022-09-24T04:20:17;16.00;99.90
34768;DHT22;21755;43.608;1.236;2022-09-24T04:22:46;16.00;99.90
34768;DHT22;21755;43.608;1.236;2022-09-24T04:25:12;16.00;99.90
34768;DHT22;21755;43.608;1.236;2022-09-24T04:27:38;16.00;99.90
34768;DHT22;21755;43.608;1.236;2022-09-24T04:30:06;16.00;99.90
34768;DHT22;21755;43.608;1.236;2022-09-24T04:32:32;16.00;99.90
34768;DHT22;21755;43.608;1.236;2022-09-24T04:34:58;16.00;99.90
34768;DHT22;21755;43.608;1.236;2022-09-24T04:37:24;16.00;99.90
34768;DHT22;21755;43.608;1.236;2022-09-24T04:39:50;16.00;99.90
34768;DHT22;21755;43.608;1.236;2022-09-24T04:42:16;16.00;99.90
34768;DHT22;21755;43.608;1.236;2022-09-24T04:44:43;16.00;99.90
34768;DHT22;21755;43.608;1.236;2022-09-24T04:47:16;16.00;99.90
34768;DHT22;21755;43.608;1.236;2022-09-24T04:49:42;16.00;99.90
34768;DHT22;21755;43.608;1.236;2022-09-24T04:52:11;16.00;99.90
34768;DHT22;21755;43.608;1.236;2022-09-24T04:54:40;16.00;99.90
34768;DHT22;21755;43.608;1.236;2022-09-24T04:57:15;16.00;99.90
34768;DHT22;21755;43.608;1.236;2022-09-24T04:59:42;16.00;99.90
34768;DHT22;21755;43.608;1.236;2022-09-24T05:02:08;15.90;99.90
34768;DHT22;21755;43.608;1.236;2022-09-24T05:04:35;15.90;99.90
34768;DHT22;21755;43.608;1.236;2022-09-24T05:07:02;15.90;99.90
34768;DHT22;21755;43.608;1.236;2022-09-24T05:09:28;15.90;99.90
34768;DHT22;21755;43.608;1.236;2022-09-24T05:12:01;15.90;99.90
34768;DHT22;21755;43.608;1.236;2022-09-24T05:14:27;15.90;99.90
34768;DHT22;21755;43.608;1.236;2022-09-24T05:16:53;15.90;99.90
34768;DHT22;21755;43.608;1.236;2022-09-24T05:19:19;15.90;99.90
34768;DHT22;21755;43.608;1.236;2022-09-24T05:21:45;15.90;99.90
34768;DHT22;21755;43.608;1.236;2022-09-24T05:24:11;15.90;99.90
34768;DHT22;21755;43.608;1.236;2022-09-24T05:26:37;15.90;99.90
34768;DHT22;21755;43.608;1.236;2022-09-24T05:29:22;15.90;99.90
34768;DHT22;21755;43.608;1.236;2022-09-24T05:31:48;15.90;99.90
34768;DHT22;21755;43.608;1.236;2022-09-24T05:34:14;15.90;99.90
34768;DHT22;21755;43.608;1.236;2022-09-24T05:36:40;15.90;99.90
34768;DHT22;21755;43.608;1.236;2022-09-24T05:39:11;15.90;99.90
34768;DHT22;21755;43.608;1.236;2022-09-24T05:41:40;15.90;99.90
34768;DHT22;21755;43.608;1.236;2022-09-24T05:44:06;15.90;99.90
34768;DHT22;21755;43.608;1.236;2022-09-24T05:46:32;15.90;99.90
34768;DHT22;21755;43.608;1.236;2022-09-24T05:48:58;15.90;99.90
34768;DHT22;21755;43.608;1.236;2022-09-24T05:51:24;15.90;99.90
34768;DHT22;21755;43.608;1.236;2022-09-24T05:53:50;15.90;99.90
34768;DHT22;21755;43.608;1.236;2022-09-24T05:56:16;15.90;99.90
34768;DHT22;21755;43.608;1.236;2022-09-24T05:58:42;15.90;99.90
34768;DHT22;21755;43.608;1.236;2022-09-24T06:01:08;15.90;99.90
34768;DHT22;21755;43.608;1.236;2022-09-24T06:03:34;15.90;99.90
34768;DHT22;21755;43.608;1.236;2022-09-24T06:06:00;15.90;99.90
34768;DHT22;21755;43.608;1.236;2022-09-24T06:08:30;15.80;99.90
34768;DHT22;21755;43.608;1.236;2022-09-24T06:11:01;15.80;99.90
34768;DHT22;21755;43.608;1.236;2022-09-24T06:13:27;15.90;99.90
34768;DHT22;21755;43.608;1.236;2022-09-24T06:16:01;15.80;99.90
34768;DHT22;21755;43.608;1.236;2022-09-24T06:18:27;15.80;99.90
34768;DHT22;21755;43.608;1.236;2022-09-24T06:20:54;15.80;99.90
34768;DHT22;21755;43.608;1.236;2022-09-24T06:23:20;15.80;99.90
34768;DHT22;21755;43.608;1.236;2022-09-24T06:25:49;15.80;99.90
34768;DHT22;21755;43.608;1.236;2022-09-24T06:28:18;15.80;99.90
34768;DHT22;21755;43.608;1.236;2022-09-24T06:30:44;15.80;99.90
34768;DHT22;21755;43.608;1.236;2022-09-24T06:33:11;15.80;99.90
34768;DHT22;21755;43.608;1.236;2022-09-24T06:35:39;15.80;99.90
34768;DHT22;21755;43.608;1.236;2022-09-24T06:38:09;15.70;99.90
34768;DHT22;21755;43.608;1.236;2022-09-24T06:40:36;15.80;99.90
34768;DHT22;21755;43.608;1.236;2022-09-24T06:43:04;15.80;99.90
34768;DHT22;21755;43.608;1.236;2022-09-24T06:45:31;15.70;99.90
34768;DHT22;21755;43.608;1.236;2022-09-24T06:47:59;15.70;99.90
34768;DHT22;21755;43.608;1.236;2022-09-24T06:50:27;15.90;99.90
34768;DHT22;21755;43.608;1.236;2022-09-24T06:52:57;15.90;99.90
34768;DHT22;21755;43.608;1.236;2022-09-24T06:55:23;15.90;99.90
34768;DHT22;21755;43.608;1.236;2022-09-24T06:57:49;15.80;99.90
34768;DHT22;21755;43.608;1.236;2022-09-24T07:00:16;15.80;99.90
34768;DHT22;21755;43.608;1.236;2022-09-24T07:02:42;15.90;99.90
34768;DHT22;21755;43.608;1.236;2022-09-24T07:05:09;15.90;99.90
34768;DHT22;21755;43.608;1.236;2022-09-24T07:07:35;16.00;99.90
34768;DHT22;21755;43.608;1.236;2022-09-24T07:10:04;16.00;99.90
34768;DHT22;21755;43.608;1.236;2022-09-24T07:12:33;16.10;99.90
34768;DHT22;21755;43.608;1.236;2022-09-24T07:14:59;16.10;99.90
34768;DHT22;21755;43.608;1.236;2022-09-24T07:17:26;16.10;99.90
34768;DHT22;21755;43.608;1.236;2022-09-24T07:19:53;16.20;99.90
34768;DHT22;21755;43.608;1.236;2022-09-24T07:22:19;16.20;99.90
34768;DHT22;21755;43.608;1.236;2022-09-24T07:24:45;16.30;99.90
34768;DHT22;21755;43.608;1.236;2022-09-24T07:27:12;16.40;99.90
34768;DHT22;21755;43.608;1.236;2022-09-24T07:29:38;16.20;99.90
34768;DHT22;21755;43.608;1.236;2022-09-24T07:32:04;16.20;99.90
34768;DHT22;21755;43.608;1.236;2022-09-24T07:34:31;16.20;99.90
34768;DHT22;21755;43.608;1.236;2022-09-24T07:36:57;16.20;99.90
34768;DHT22;21755;43.608;1.236;2022-09-24T07:39:23;16.30;99.90
34768;DHT22;21755;43.608;1.236;2022-09-24T07:41:50;16.30;99.90
34768;DHT22;21755;43.608;1.236;2022-09-24T07:44:21;16.20;99.90
34768;DHT22;21755;43.608;1.236;2022-09-24T07:46:48;16.30;99.90
34768;DHT22;21755;43.608;1.236;2022-09-24T07:49:14;16.30;99.90
34768;DHT22;21755;43.608;1.236;2022-09-24T07:51:41;16.50;99.90
34768;DHT22;21755;43.608;1.236;2022-09-24T07:54:07;16.50;99.90
34768;DHT22;21755;43.608;1.236;2022-09-24T07:56:33;16.40;99.90
34768;DHT22;21755;43.608;1.236;2022-09-24T07:58:59;16.20;99.90
34768;DHT22;21755;43.608;1.236;2022-09-24T08:01:25;16.20;99.90
34768;DHT22;21755;43.608;1.236;2022-09-24T08:03:52;16.30;99.90
34768;DHT22;21755;43.608;1.236;2022-09-24T08:06:19;16.40;99.90
34768;DHT22;21755;43.608;1.236;2022-09-24T08:08:50;16.60;99.90
34768;DHT22;21755;43.608;1.236;2022-09-24T08:11:21;16.60;99.90
34768;DHT22;21755;43.608;1.236;2022-09-24T08:13:47;16.60;99.90
34768;DHT22;21755;43.608;1.236;2022-09-24T08:16:14;16.70;99.90
34768;DHT22;21755;43.608;1.236;2022-09-24T08:18:42;16.70;99.90
34768;DHT22;21755;43.608;1.236;2022-09-24T08:21:09;16.70;99.90
34768;DHT22;21755;43.608;1.236;2022-09-24T08:23:37;16.70;99.90
34768;DHT22;21755;43.608;1.236;2022-09-24T08:26:04;16.80;99.90
34768;DHT22;21755;43.608;1.236;2022-09-24T08:28:30;16.80;99.90
34768;DHT22;21755;43.608;1.236;2022-09-24T08:31:01;16.90;99.90
34768;DHT22;21755;43.608;1.236;2022-09-24T08:33:29;16.90;99.90
34768;DHT22;21755;43.608;1.236;2022-09-24T08:36:00;17.00;99.90
34768;DHT22;21755;43.608;1.236;2022-09-24T08:38:27;17.00;99.90
34768;DHT22;21755;43.608;1.236;2022-09-24T08:41:09;17.10;99.90
34768;DHT22;21755;43.608;1.236;2022-09-24T08:47:06;17.10;99.90
34768;DHT22;21755;43.608;1.236;2022-09-24T08:49:46;17.20;99.90
34768;DHT22;21755;43.608;1.236;2022-09-24T08:54:50;17.50;99.90
34768;DHT22;21755;43.608;1.236;2022-09-24T08:57:19;17.50;99.90
34768;DHT22;21755;43.608;1.236;2022-09-24T08:59:50;17.40;99.90
34768;DHT22;21755;43.608;1.236;2022-09-24T09:02:40;17.30;99.90
34768;DHT22;21755;43.608;1.236;2022-09-24T09:05:34;17.30;99.90
34768;DHT22;21755;43.608;1.236;2022-09-24T09:10:45;17.50;99.90
34768;DHT22;21755;43.608;1.236;2022-09-24T09:13:34;17.60;99.90
34768;DHT22;21755;43.608;1.236;2022-09-24T09:16:17;17.80;99.90
34768;DHT22;21755;43.608;1.236;2022-09-24T09:18:46;18.10;99.90
34768;DHT22;21755;43.608;1.236;2022-09-24T09:21:17;18.20;99.90
34768;DHT22;21755;43.608;1.236;2022-09-24T09:23:50;18.20;99.90
34768;DHT22;21755;43.608;1.236;2022-09-24T09:26:18;18.30;99.90
34768;DHT22;21755;43.608;1.236;2022-09-24T09:28:46;18.50;99.90
34768;DHT22;21755;43.608;1.236;2022-09-24T09:40:41;18.20;99.90
34768;DHT22;21755;43.608;1.236;2022-09-24T09:42:47;18.20;99.90
34768;DHT22;21755;43.608;1.236;2022-09-24T09:47:58;18.10;99.90
34768;DHT22;21755;43.608;1.236;2022-09-24T09:53:02;18.10;99.90
34768;DHT22;21755;43.608;1.236;2022-09-24T09:55:35;18.20;99.90
34768;DHT22;21755;43.608;1.236;2022-09-24T10:00:35;18.30;99.90
34768;DHT22;21755;43.608;1.236;2022-09-24T10:03:01;18.50;99.90
34768;DHT22;21755;43.608;1.236;2022-09-24T10:05:29;18.50;99.90
34768;DHT22;21755;43.608;1.236;2022-09-24T10:07:56;18.50;99.90
34768;DHT22;21755;43.608;1.236;2022-09-24T10:10:26;18.70;99.90
34768;DHT22;21755;43.608;1.236;2022-09-24T10:13:04;18.70;99.90
34768;DHT22;21755;43.608;1.236;2022-09-24T10:15:31;18.60;99.90
34768;DHT22;21755;43.608;1.236;2022-09-24T10:17:59;18.70;99.90
34768;DHT22;21755;43.608;1.236;2022-09-24T10:20:32;18.70;99.90
34768;DHT22;21755;43.608;1.236;2022-09-24T10:23:05;18.60;99.90
34768;DHT22;21755;43.608;1.236;2022-09-24T10:25:32;18.80;99.90
34768;DHT22;21755;43.608;1.236;2022-09-24T10:28:06;18.80;99.90
34768;DHT22;21755;43.608;1.236;2022-09-24T10:30:59;18.80;99.90
34768;DHT22;21755;43.608;1.236;2022-09-24T10:33:34;18.80;99.90
34768;DHT22;21755;43.608;1.236;2022-09-24T10:36:05;18.90;99.90
34768;DHT22;21755;43.608;1.236;2022-09-24T10:38:32;18.90;99.90
34768;DHT22;21755;43.608;1.236;2022-09-24T10:40:58;18.80;99.90
34768;DHT22;21755;43.608;1.236;2022-09-24T10:43:24;18.90;99.90
34768;DHT22;21755;43.608;1.236;2022-09-24T10:46:10;18.90;99.90
34768;DHT22;21755;43.608;1.236;2022-09-24T10:51:50;19.20;99.90
34768;DHT22;21755;43.608;1.236;2022-09-24T10:57:23;19.00;99.90
34768;DHT22;21755;43.608;1.236;2022-09-24T11:00:08;19.10;99.90
34768;DHT22;21755;43.608;1.236;2022-09-24T11:05:23;19.20;99.90
34768;DHT22;21755;43.608;1.236;2022-09-24T11:08:23;19.20;99.90
34768;DHT22;21755;43.608;1.236;2022-09-24T11:13:45;19.40;99.90
34768;DHT22;21755;43.608;1.236;2022-09-24T11:35:46;19.70;99.90
34768;DHT22;21755;43.608;1.236;2022-09-24T11:48:07;19.40;99.90
34768;DHT22;21755;43.608;1.236;2022-09-24T11:53:50;20.30;99.90
34768;DHT22;21755;43.608;1.236;2022-09-24T11:56:29;20.40;99.90
34768;DHT22;21755;43.608;1.236;2022-09-24T11:59:21;20.60;99.90
34768;DHT22;21755;43.608;1.236;2022-09-24T12:01:55;20.40;99.90
34768;DHT22;21755;43.608;1.236;2022-09-24T12:11:35;20.00;99.90
34768;DHT22;21755;43.608;1.236;2022-09-24T12:13:54;20.20;99.90
34768;DHT22;21755;43.608;1.236;2022-09-24T12:16:28;20.10;99.90
34768;DHT22;21755;43.608;1.236;2022-09-24T12:19:04;20.10;99.90
34768;DHT22;21755;43.608;1.236;2022-09-24T12:21:36;20.40;99.90
34768;DHT22;21755;43.608;1.236;2022-09-24T12:24:27;20.20;99.90
34768;DHT22;21755;43.608;1.236;2022-09-24T12:26:55;19.70;99.90
34768;DHT22;21755;43.608;1.236;2022-09-24T12:32:37;19.60;99.90
34768;DHT22;21755;43.608;1.236;2022-09-24T12:35:59;19.50;99.90
34768;DHT22;21755;43.608;1.236;2022-09-24T12:41:16;19.30;99.90
34768;DHT22;21755;43.608;1.236;2022-09-24T12:46:43;19.40;99.90
34768;DHT22;21755;43.608;1.236;2022-09-24T12:49:18;19.50;99.90
34768;DHT22;21755;43.608;1.236;2022-09-24T12:51:49;19.40;99.90
34768;DHT22;21755;43.608;1.236;2022-09-24T12:54:35;19.40;99.90
34768;DHT22;21755;43.608;1.236;2022-09-24T13:02:24;19.40;99.90
34768;DHT22;21755;43.608;1.236;2022-09-24T13:07:38;19.10;99.90
34768;DHT22;21755;43.608;1.236;2022-09-24T13:10:23;19.00;99.90
34768;DHT22;21755;43.608;1.236;2022-09-24T13:12:49;19.30;99.90
34768;DHT22;21755;43.608;1.236;2022-09-24T13:15:25;19.30;99.90
34768;DHT22;21755;43.608;1.236;2022-09-24T13:18:12;19.20;99.90
34768;DHT22;21755;43.608;1.236;2022-09-24T13:20:42;19.10;99.90
34768;DHT22;21755;43.608;1.236;2022-09-24T13:23:30;19.10;99.90
34768;DHT22;21755;43.608;1.236;2022-09-24T13:26:01;19.10;99.90
34768;DHT22;21755;43.608;1.236;2022-09-24T13:28:59;19.00;99.90
34768;DHT22;21755;43.608;1.236;2022-09-24T13:31:45;19.00;99.90
34768;DHT22;21755;43.608;1.236;2022-09-24T13:34:21;19.00;99.90
34768;DHT22;21755;43.608;1.236;2022-09-24T13:39:41;19.10;99.90
34768;DHT22;21755;43.608;1.236;2022-09-24T13:42:18;19.00;99.90
34768;DHT22;21755;43.608;1.236;2022-09-24T13:44:56;18.70;99.90
34768;DHT22;21755;43.608;1.236;2022-09-24T13:47:45;18.70;99.90
34768;DHT22;21755;43.608;1.236;2022-09-24T13:50:16;18.60;99.90
34768;DHT22;21755;43.608;1.236;2022-09-24T13:52:46;18.60;99.90
34768;DHT22;21755;43.608;1.236;2022-09-24T13:57:46;18.50;99.90
34768;DHT22;21755;43.608;1.236;2022-09-24T14:00:17;18.40;99.90
34768;DHT22;21755;43.608;1.236;2022-09-24T14:05:39;18.30;99.90
34768;DHT22;21755;43.608;1.236;2022-09-24T14:08:10;18.20;99.90
34768;DHT22;21755;43.608;1.236;2022-09-24T14:10:38;18.20;99.90
34768;DHT22;21755;43.608;1.236;2022-09-24T14:16:08;18.00;99.90
34768;DHT22;21755;43.608;1.236;2022-09-24T14:18:34;18.10;99.90
34768;DHT22;21755;43.608;1.236;2022-09-24T14:23:56;18.20;99.90
34768;DHT22;21755;43.608;1.236;2022-09-24T14:26:44;17.90;99.90
34768;DHT22;21755;43.608;1.236;2022-09-24T14:29:21;17.90;99.90
34768;DHT22;21755;43.608;1.236;2022-09-24T14:31:57;17.90;99.90
34768;DHT22;21755;43.608;1.236;2022-09-24T14:37:04;17.80;99.90
34768;DHT22;21755;43.608;1.236;2022-09-24T14:39:35;17.70;99.90
34768;DHT22;21755;43.608;1.236;2022-09-24T14:42:10;17.70;99.90
34768;DHT22;21755;43.608;1.236;2022-09-24T14:44:37;17.70;99.90
34768;DHT22;21755;43.608;1.236;2022-09-24T14:47:24;17.50;99.90
34768;DHT22;21755;43.608;1.236;2022-09-24T14:49:50;17.60;99.90
34768;DHT22;21755;43.608;1.236;2022-09-24T14:52:28;17.50;99.90
34768;DHT22;21755;43.608;1.236;2022-09-24T14:55:15;17.50;99.90
34768;DHT22;21755;43.608;1.236;2022-09-24T14:57:42;17.40;99.90
34768;DHT22;21755;43.608;1.236;2022-09-24T15:00:23;17.40;99.90
34768;DHT22;21755;43.608;1.236;2022-09-24T15:03:12;17.40;99.90
34768;DHT22;21755;43.608;1.236;2022-09-24T15:05:38;17.30;99.90
34768;DHT22;21755;43.608;1.236;2022-09-24T15:08:16;17.30;99.90
34768;DHT22;21755;43.608;1.236;2022-09-24T15:11:36;17.20;99.90
34768;DHT22;21755;43.608;1.236;2022-09-24T15:13:37;17.20;99.90
34768;DHT22;21755;43.608;1.236;2022-09-24T15:16:20;17.20;99.90
34768;DHT22;21755;43.608;1.236;2022-09-24T15:19:20;17.10;99.90
34768;DHT22;21755;43.608;1.236;2022-09-24T15:21:50;17.10;99.90
34768;DHT22;21755;43.608;1.236;2022-09-24T15:24:18;17.20;99.90
34768;DHT22;21755;43.608;1.236;2022-09-24T15:26:58;17.10;99.90
34768;DHT22;21755;43.608;1.236;2022-09-24T15:29:25;17.20;99.90
34768;DHT22;21755;43.608;1.236;2022-09-24T15:31:52;17.20;99.90
34768;DHT22;21755;43.608;1.236;2022-09-24T15:34:19;17.20;99.90
34768;DHT22;21755;43.608;1.236;2022-09-24T15:36:52;17.30;99.90
34768;DHT22;21755;43.608;1.236;2022-09-24T15:39:20;17.30;99.90
34768;DHT22;21755;43.608;1.236;2022-09-24T15:41:46;17.30;99.90
34768;DHT22;21755;43.608;1.236;2022-09-24T15:44:20;17.20;99.90
34768;DHT22;21755;43.608;1.236;2022-09-24T15:46:48;17.30;99.90
34768;DHT22;21755;43.608;1.236;2022-09-24T15:49:19;17.40;99.90
34768;DHT22;21755;43.608;1.236;2022-09-24T15:51:54;17.40;99.90
34768;DHT22;21755;43.608;1.236;2022-09-24T15:54:21;17.40;99.90
34768;DHT22;21755;43.608;1.236;2022-09-24T15:56:49;17.50;99.90
34768;DHT22;21755;43.608;1.236;2022-09-24T15:59:21;17.40;99.90
34768;DHT22;21755;43.608;1.236;2022-09-24T16:01:50;17.30;99.90
34768;DHT22;21755;43.608;1.236;2022-09-24T16:04:17;17.20;99.90
34768;DHT22;21755;43.608;1.236;2022-09-24T16:06:42;17.30;99.90
34768;DHT22;21755;43.608;1.236;2022-09-24T16:09:08;17.40;99.90
34768;DHT22;21755;43.608;1.236;2022-09-24T16:11:34;17.40;99.90
34768;DHT22;21755;43.608;1.236;2022-09-24T16:14:00;17.50;99.90
34768;DHT22;21755;43.608;1.236;2022-09-24T16:16:26;17.50;99.90
34768;DHT22;21755;43.608;1.236;2022-09-24T16:18:53;17.60;99.90
34768;DHT22;21755;43.608;1.236;2022-09-24T16:21:19;17.60;99.90
34768;DHT22;21755;43.608;1.236;2022-09-24T16:23:45;17.60;99.90
34768;DHT22;21755;43.608;1.236;2022-09-24T16:26:11;17.60;99.90
34768;DHT22;21755;43.608;1.236;2022-09-24T16:28:37;17.50;99.90
34768;DHT22;21755;43.608;1.236;2022-09-24T16:31:06;17.60;99.90
34768;DHT22;21755;43.608;1.236;2022-09-24T16:33:36;17.60;99.90
34768;DHT22;21755;43.608;1.236;2022-09-24T16:36:06;17.60;99.90
34768;DHT22;21755;43.608;1.236;2022-09-24T16:38:34;17.50;99.90
34768;DHT22;21755;43.608;1.236;2022-09-24T16:41:00;17.60;99.90
34768;DHT22;21755;43.608;1.236;2022-09-24T16:43:27;17.60;99.90
34768;DHT22;21755;43.608;1.236;2022-09-24T16:45:53;17.60;99.90
34768;DHT22;21755;43.608;1.236;2022-09-24T16:48:23;17.60;99.90
34768;DHT22;21755;43.608;1.236;2022-09-24T16:50:49;17.60;99.90
34768;DHT22;21755;43.608;1.236;2022-09-24T16:53:15;17.60;99.90
34768;DHT22;21755;43.608;1.236;2022-09-24T16:55:41;17.60;99.90
34768;DHT22;21755;43.608;1.236;2022-09-24T16:58:07;17.50;99.90
34768;DHT22;21755;43.608;1.236;2022-09-24T17:00:34;17.50;99.90
34768;DHT22;21755;43.608;1.236;2022-09-24T17:02:59;17.50;99.90
34768;DHT22;21755;43.608;1.236;2022-09-24T17:05:25;17.50;99.90
34768;DHT22;21755;43.608;1.236;2022-09-24T17:07:51;17.50;99.90
34768;DHT22;21755;43.608;1.236;2022-09-24T17:10:17;17.50;99.90
34768;DHT22;21755;43.608;1.236;2022-09-24T17:12:48;17.40;99.90
34768;DHT22;21755;43.608;1.236;2022-09-24T17:15:16;17.40;99.90
34768;DHT22;21755;43.608;1.236;2022-09-24T17:17:43;17.40;99.90
34768;DHT22;21755;43.608;1.236;2022-09-24T17:20:10;17.40;99.90
34768;DHT22;21755;43.608;1.236;2022-09-24T17:22:36;17.30;99.90
34768;DHT22;21755;43.608;1.236;2022-09-24T17:25:06;17.40;99.90
34768;DHT22;21755;43.608;1.236;2022-09-24T17:27:32;17.40;99.90
34768;DHT22;21755;43.608;1.236;2022-09-24T17:30:01;17.30;99.90
34768;DHT22;21755;43.608;1.236;2022-09-24T17:32:27;17.40;99.90
34768;DHT22;21755;43.608;1.236;2022-09-24T17:34:52;17.30;99.90
34768;DHT22;21755;43.608;1.236;2022-09-24T17:37:19;17.40;99.90
34768;DHT22;21755;43.608;1.236;2022-09-24T17:39:44;17.40;99.90
34768;DHT22;21755;43.608;1.236;2022-09-24T17:42:10;17.30;99.90
34768;DHT22;21755;43.608;1.236;2022-09-24T17:44:36;17.30;99.90
34768;DHT22;21755;43.608;1.236;2022-09-24T17:47:03;17.20;99.90
34768;DHT22;21755;43.608;1.236;2022-09-24T17:49:29;17.20;99.90
34768;DHT22;21755;43.608;1.236;2022-09-24T17:51:56;17.20;99.90
34768;DHT22;21755;43.608;1.236;2022-09-24T17:54:26;17.10;99.90
34768;DHT22;21755;43.608;1.236;2022-09-24T17:56:51;17.10;99.90
34768;DHT22;21755;43.608;1.236;2022-09-24T17:59:18;17.10;99.90
34768;DHT22;21755;43.608;1.236;2022-09-24T18:01:44;17.10;99.90
34768;DHT22;21755;43.608;1.236;2022-09-24T18:04:13;17.00;99.90
34768;DHT22;21755;43.608;1.236;2022-09-24T18:06:40;17.00;99.90
34768;DHT22;21755;43.608;1.236;2022-09-24T18:09:08;16.90;99.90